N7VR-2 Weather Reports


Display with metric or nautical units.
time (UTC)temp
F
wind
direction
speed
MPH
gust
MPH
rain 1hr
in
rain 24hr
in
rain mn
in
humidity
%
barometer
mb
20210513023005 61 112 1.0 6.0 0.00 0.00 0.00 46 905.7
20210513020005 63 123 3.0 9.0 0.00 0.00 0.00 41 905.4
20210513013005 65 100 5.0 10.0 0.00 0.00 0.00 38 905.3
20210513010005 66 69 3.0 8.0 0.00 0.00 0.00 38 905.2
20210513003006 68 92 5.0 10.0 0.00 0.00 0.00 35 905.2
20210513000008 70 50 5.0 6.0 0.00 0.00 0.00 28 905.6
20210512233005 70 322 2.0 7.0 0.00 0.00 0.00 29 905.7
20210512230005 73 52 4.0 7.0 0.00 0.00 0.00 28 905.8
20210512223005 71 350 3.0 13.0 0.00 0.00 0.00 29 906.0
20210512220005 70 79 4.0 9.0 0.00 0.00 0.00 29 906.3
20210512213004 69 205 3.0 7.0 0.00 0.00 0.00 32 906.5
20210512210004 68 338 4.0 8.0 0.00 0.00 0.00 33 906.9
20210512203005 68 0 5.0 9.0 0.00 0.00 0.00 35 907.0
20210512200005 63 258 4.0 8.0 0.00 0.00 0.00 40 907.1
20210512193005 66 311 5.0 7.0 0.00 0.00 0.00 40 907.3
20210512190004 65 270 2.0 7.0 0.00 0.00 0.00 42 907.7
20210512183005 66 260 2.0 7.0 0.00 0.00 0.00 44 908.0
20210512180004 61 32 2.0 6.0 0.00 0.00 0.00 51 908.3
20210512173006 61 51 2.0 6.0 0.00 0.00 0.00 52 908.4
20210512170004 59 295 4.0 7.0 0.00 0.00 0.00 55 908.7
20210512160004 52 248 1.0 5.0 0.00 0.00 0.00 68 909.1
20210512153004 49 270 1.0 6.0 0.00 0.00 0.00 71 909.0
20210512150004 48 270 0.0 5.0 0.00 0.00 0.00 73 909.0
20210512143004 46 287 1.0 6.0 0.00 0.00 0.00 75 909.1
20210512140004 44 247 0.0 0.0 0.00 0.00 0.00 80 909.1
20210512133005 42 294 0.0 2.0 0.00 0.00 0.00 81 909.0
20210512130004 40 282 0.0 1.0 0.00 0.00 0.00 87 908.8
20210512123006 37 303 0.0 0.0 0.00 0.00 0.00 95 908.6
20210512120019 36 259 0.0 0.0 0.00 0.00 0.00 96 908.4
20210512113004 35 282 0.0 0.0 0.00 0.00 0.00 96 908.3
20210512110004 36 315 0.0 0.0 0.00 0.00 0.00 96 908.2